sensor_id;sensor_type;location;lat;lon;timestamp;P1;durP1;ratioP1;P2;durP2;ratioP2
43337;SDS011;28933;52.492;13.434;2022-07-01T00:00:49;10.60;;;9.50;;
43337;SDS011;28933;52.492;13.434;2022-07-01T00:03:14;10.50;;;9.43;;
43337;SDS011;28933;52.492;13.434;2022-07-01T00:05:40;11.25;;;8.70;;
43337;SDS011;28933;52.492;13.434;2022-07-01T00:08:05;11.45;;;10.25;;
43337;SDS011;28933;52.492;13.434;2022-07-01T00:10:31;12.88;;;10.25;;
43337;SDS011;28933;52.492;13.434;2022-07-01T00:12:57;12.18;;;10.90;;
43337;SDS011;28933;52.492;13.434;2022-07-01T00:15:22;11.90;;;9.85;;
43337;SDS011;28933;52.492;13.434;2022-07-01T00:17:48;10.90;;;9.35;;
43337;SDS011;28933;52.492;13.434;2022-07-01T00:20:14;12.02;;;10.63;;
43337;SDS011;28933;52.492;13.434;2022-07-01T00:22:40;11.57;;;10.25;;
43337;SDS011;28933;52.492;13.434;2022-07-01T00:25:06;12.82;;;10.88;;
43337;SDS011;28933;52.492;13.434;2022-07-01T00:27:32;12.20;;;10.10;;
43337;SDS011;28933;52.492;13.434;2022-07-01T00:30:01;12.68;;;10.73;;
43337;SDS011;28933;52.492;13.434;2022-07-01T00:32:26;11.95;;;10.68;;
43337;SDS011;28933;52.492;13.434;2022-07-01T00:34:52;13.73;;;11.23;;
43337;SDS011;28933;52.492;13.434;2022-07-01T00:37:18;13.27;;;11.50;;
43337;SDS011;28933;52.492;13.434;2022-07-01T00:39:43;13.20;;;10.90;;
43337;SDS011;28933;52.492;13.434;2022-07-01T00:42:09;12.90;;;11.45;;
43337;SDS011;28933;52.492;13.434;2022-07-01T00:44:34;11.98;;;10.77;;
43337;SDS011;28933;52.492;13.434;2022-07-01T00:47:01;12.20;;;10.93;;
43337;SDS011;28933;52.492;13.434;2022-07-01T00:49:28;12.68;;;11.02;;
43337;SDS011;28933;52.492;13.434;2022-07-01T00:51:54;14.48;;;11.60;;
43337;SDS011;28933;52.492;13.434;2022-07-01T00:54:20;12.15;;;10.98;;
43337;SDS011;28933;52.492;13.434;2022-07-01T00:56:47;14.07;;;12.57;;
43337;SDS011;28933;52.492;13.434;2022-07-01T00:59:13;12.55;;;10.90;;
43337;SDS011;28933;52.492;13.434;2022-07-01T01:01:39;14.52;;;12.40;;
43337;SDS011;28933;52.492;13.434;2022-07-01T01:04:05;11.82;;;10.60;;
43337;SDS011;28933;52.492;13.434;2022-07-01T01:06:31;12.98;;;11.45;;
43337;SDS011;28933;52.492;13.434;2022-07-01T01:08:56;14.95;;;13.35;;
43337;SDS011;28933;52.492;13.434;2022-07-01T01:11:22;13.02;;;11.57;;
43337;SDS011;28933;52.492;13.434;2022-07-01T01:13:47;14.48;;;11.98;;
43337;SDS011;28933;52.492;13.434;2022-07-01T01:16:19;13.82;;;12.43;;
43337;SDS011;28933;52.492;13.434;2022-07-01T01:18:46;14.10;;;12.73;;
43337;SDS011;28933;52.492;13.434;2022-07-01T01:21:12;13.88;;;12.38;;
43337;SDS011;28933;52.492;13.434;2022-07-01T01:23:37;14.18;;;12.68;;
43337;SDS011;28933;52.492;13.434;2022-07-01T01:26:03;17.17;;;13.07;;
43337;SDS011;28933;52.492;13.434;2022-07-01T01:28:28;13.88;;;12.38;;
43337;SDS011;28933;52.492;13.434;2022-07-01T01:30:54;13.18;;;11.52;;
43337;SDS011;28933;52.492;13.434;2022-07-01T01:33:20;14.93;;;12.98;;
43337;SDS011;28933;52.492;13.434;2022-07-01T01:35:45;13.63;;;12.23;;
43337;SDS011;28933;52.492;13.434;2022-07-01T01:38:11;14.38;;;11.65;;
43337;SDS011;28933;52.492;13.434;2022-07-01T01:40:37;13.68;;;12.27;;
43337;SDS011;28933;52.492;13.434;2022-07-01T01:43:02;16.88;;;14.00;;
43337;SDS011;28933;52.492;13.434;2022-07-01T01:45:28;13.52;;;11.70;;
43337;SDS011;28933;52.492;13.434;2022-07-01T01:47:54;15.30;;;12.77;;
43337;SDS011;28933;52.492;13.434;2022-07-01T01:50:20;13.52;;;11.52;;
43337;SDS011;28933;52.492;13.434;2022-07-01T01:52:45;14.90;;;12.85;;
43337;SDS011;28933;52.492;13.434;2022-07-01T01:55:11;13.90;;;12.15;;
43337;SDS011;28933;52.492;13.434;2022-07-01T01:57:38;14.73;;;13.13;;
43337;SDS011;28933;52.492;13.434;2022-07-01T02:00:05;17.27;;;13.23;;
43337;SDS011;28933;52.492;13.434;2022-07-01T02:02:32;19.35;;;13.73;;
43337;SDS011;28933;52.492;13.434;2022-07-01T02:05:01;15.20;;;13.48;;
43337;SDS011;28933;52.492;13.434;2022-07-01T02:07:27;15.05;;;13.45;;
43337;SDS011;28933;52.492;13.434;2022-07-01T02:09:53;16.65;;;14.35;;
43337;SDS011;28933;52.492;13.434;2022-07-01T02:12:19;16.65;;;14.07;;
43337;SDS011;28933;52.492;13.434;2022-07-01T02:14:45;18.17;;;15.43;;
43337;SDS011;28933;52.492;13.434;2022-07-01T02:17:11;19.38;;;15.00;;
43337;SDS011;28933;52.492;13.434;2022-07-01T02:19:36;16.58;;;14.43;;
43337;SDS011;28933;52.492;13.434;2022-07-01T02:22:02;16.73;;;14.77;;
43337;SDS011;28933;52.492;13.434;2022-07-01T02:24:27;16.75;;;14.93;;
43337;SDS011;28933;52.492;13.434;2022-07-01T02:26:53;17.48;;;15.50;;
43337;SDS011;28933;52.492;13.434;2022-07-01T02:29:19;18.77;;;15.80;;
43337;SDS011;28933;52.492;13.434;2022-07-01T02:31:44;16.40;;;14.68;;
43337;SDS011;28933;52.492;13.434;2022-07-01T02:34:10;17.95;;;15.57;;
43337;SDS011;28933;52.492;13.434;2022-07-01T02:36:35;17.90;;;16.02;;
43337;SDS011;28933;52.492;13.434;2022-07-01T02:39:01;18.40;;;15.65;;
43337;SDS011;28933;52.492;13.434;2022-07-01T02:41:27;16.13;;;14.00;;
43337;SDS011;28933;52.492;13.434;2022-07-01T02:43:52;17.33;;;15.55;;
43337;SDS011;28933;52.492;13.434;2022-07-01T02:46:18;17.45;;;14.82;;
43337;SDS011;28933;52.492;13.434;2022-07-01T02:48:43;18.17;;;15.52;;
43337;SDS011;28933;52.492;13.434;2022-07-01T02:51:09;19.25;;;15.95;;
43337;SDS011;28933;52.492;13.434;2022-07-01T02:53:34;18.20;;;16.20;;
43337;SDS011;28933;52.492;13.434;2022-07-01T02:56:00;22.83;;;16.83;;
43337;SDS011;28933;52.492;13.434;2022-07-01T02:58:26;17.67;;;15.00;;
43337;SDS011;28933;52.492;13.434;2022-07-01T03:00:51;19.35;;;16.05;;
43337;SDS011;28933;52.492;13.434;2022-07-01T03:03:18;19.05;;;15.18;;
43337;SDS011;28933;52.492;13.434;2022-07-01T03:05:44;20.02;;;16.67;;
43337;SDS011;28933;52.492;13.434;2022-07-01T03:08:09;16.55;;;14.77;;
43337;SDS011;28933;52.492;13.434;2022-07-01T03:10:35;17.25;;;15.35;;
43337;SDS011;28933;52.492;13.434;2022-07-01T03:13:01;22.42;;;16.17;;
43337;SDS011;28933;52.492;13.434;2022-07-01T03:15:27;19.92;;;16.42;;
43337;SDS011;28933;52.492;13.434;2022-07-01T03:17:53;17.85;;;16.08;;
43337;SDS011;28933;52.492;13.434;2022-07-01T03:20:18;17.58;;;15.68;;
43337;SDS011;28933;52.492;13.434;2022-07-01T03:22:44;18.50;;;16.00;;
43337;SDS011;28933;52.492;13.434;2022-07-01T03:25:11;18.65;;;15.38;;
43337;SDS011;28933;52.492;13.434;2022-07-01T03:27:38;20.65;;;16.08;;
43337;SDS011;28933;52.492;13.434;2022-07-01T03:30:10;18.08;;;15.70;;
43337;SDS011;28933;52.492;13.434;2022-07-01T03:32:36;20.08;;;16.33;;
43337;SDS011;28933;52.492;13.434;2022-07-01T03:35:02;17.05;;;15.35;;
43337;SDS011;28933;52.492;13.434;2022-07-01T03:37:48;17.58;;;15.73;;
43337;SDS011;28933;52.492;13.434;2022-07-01T03:40:14;18.67;;;16.77;;
43337;SDS011;28933;52.492;13.434;2022-07-01T03:42:40;18.70;;;16.20;;
43337;SDS011;28933;52.492;13.434;2022-07-01T03:45:05;18.73;;;16.00;;
43337;SDS011;28933;52.492;13.434;2022-07-01T03:47:31;18.67;;;16.55;;
43337;SDS011;28933;52.492;13.434;2022-07-01T03:49:57;19.48;;;16.90;;
43337;SDS011;28933;52.492;13.434;2022-07-01T03:52:23;18.25;;;16.35;;
43337;SDS011;28933;52.492;13.434;2022-07-01T03:54:48;21.33;;;15.73;;
43337;SDS011;28933;52.492;13.434;2022-07-01T03:57:14;18.33;;;16.25;;
43337;SDS011;28933;52.492;13.434;2022-07-01T03:59:39;20.25;;;17.17;;
43337;SDS011;28933;52.492;13.434;2022-07-01T04:02:05;19.23;;;17.15;;
43337;SDS011;28933;52.492;13.434;2022-07-01T04:04:31;20.48;;;17.48;;
43337;SDS011;28933;52.492;13.434;2022-07-01T04:06:58;17.20;;;15.35;;
43337;SDS011;28933;52.492;13.434;2022-07-01T04:09:25;18.90;;;16.90;;
43337;SDS011;28933;52.492;13.434;2022-07-01T04:11:52;19.70;;;17.60;;
43337;SDS011;28933;52.492;13.434;2022-07-01T04:14:18;18.48;;;16.45;;
43337;SDS011;28933;52.492;13.434;2022-07-01T04:16:44;22.25;;;17.42;;
43337;SDS011;28933;52.492;13.434;2022-07-01T04:19:10;21.10;;;18.02;;
43337;SDS011;28933;52.492;13.434;2022-07-01T04:21:38;20.67;;;17.40;;
43337;SDS011;28933;52.492;13.434;2022-07-01T04:24:22;19.77;;;15.95;;
43337;SDS011;28933;52.492;13.434;2022-07-01T04:26:49;19.50;;;17.25;;
43337;SDS011;28933;52.492;13.434;2022-07-01T04:29:15;20.15;;;17.58;;
43337;SDS011;28933;52.492;13.434;2022-07-01T04:31:41;21.85;;;18.13;;
43337;SDS011;28933;52.492;13.434;2022-07-01T04:34:07;18.98;;;16.77;;
43337;SDS011;28933;52.492;13.434;2022-07-01T04:36:33;18.27;;;16.38;;
43337;SDS011;28933;52.492;13.434;2022-07-01T04:38:59;18.35;;;16.38;;
43337;SDS011;28933;52.492;13.434;2022-07-01T04:41:25;22.10;;;18.27;;
43337;SDS011;28933;52.492;13.434;2022-07-01T04:44:10;21.70;;;16.45;;
43337;SDS011;28933;52.492;13.434;2022-07-01T04:46:35;19.05;;;17.10;;
43337;SDS011;28933;52.492;13.434;2022-07-01T04:49:01;19.83;;;17.60;;
43337;SDS011;28933;52.492;13.434;2022-07-01T04:51:27;18.88;;;16.88;;
43337;SDS011;28933;52.492;13.434;2022-07-01T04:53:53;18.27;;;16.35;;
43337;SDS011;28933;52.492;13.434;2022-07-01T04:56:19;20.95;;;18.42;;
43337;SDS011;28933;52.492;13.434;2022-07-01T04:58:45;18.98;;;16.90;;
43337;SDS011;28933;52.492;13.434;2022-07-01T05:01:11;20.02;;;17.45;;
43337;SDS011;28933;52.492;13.434;2022-07-01T05:03:36;21.38;;;19.05;;
43337;SDS011;28933;52.492;13.434;2022-07-01T05:06:02;21.33;;;17.83;;
43337;SDS011;28933;52.492;13.434;2022-07-01T05:08:28;20.05;;;17.95;;
43337;SDS011;28933;52.492;13.434;2022-07-01T05:10:53;21.08;;;17.42;;
43337;SDS011;28933;52.492;13.434;2022-07-01T05:13:19;18.27;;;16.40;;
43337;SDS011;28933;52.492;13.434;2022-07-01T05:15:45;18.38;;;16.45;;
43337;SDS011;28933;52.492;13.434;2022-07-01T05:18:10;19.40;;;17.30;;
43337;SDS011;28933;52.492;13.434;2022-07-01T05:20:54;20.80;;;17.50;;
43337;SDS011;28933;52.492;13.434;2022-07-01T05:23:39;19.38;;;15.80;;
43337;SDS011;28933;52.492;13.434;2022-07-01T05:26:04;18.50;;;16.52;;
43337;SDS011;28933;52.492;13.434;2022-07-01T05:28:30;20.40;;;17.25;;
43337;SDS011;28933;52.492;13.434;2022-07-01T05:30:56;19.30;;;16.88;;
43337;SDS011;28933;52.492;13.434;2022-07-01T05:33:21;19.80;;;17.38;;
43337;SDS011;28933;52.492;13.434;2022-07-01T05:35:51;19.13;;;16.52;;
43337;SDS011;28933;52.492;13.434;2022-07-01T05:38:17;19.10;;;17.10;;
43337;SDS011;28933;52.492;13.434;2022-07-01T05:40:43;20.33;;;18.17;;
43337;SDS011;28933;52.492;13.434;2022-07-01T05:43:09;19.17;;;15.23;;
43337;SDS011;28933;52.492;13.434;2022-07-01T05:45:34;18.10;;;16.20;;
43337;SDS011;28933;52.492;13.434;2022-07-01T05:48:00;18.23;;;16.27;;
43337;SDS011;28933;52.492;13.434;2022-07-01T05:50:25;19.73;;;16.45;;
43337;SDS011;28933;52.492;13.434;2022-07-01T05:52:51;19.50;;;15.88;;
43337;SDS011;28933;52.492;13.434;2022-07-01T05:55:16;16.50;;;14.82;;
43337;SDS011;28933;52.492;13.434;2022-07-01T05:57:42;19.08;;;15.57;;
43337;SDS011;28933;52.492;13.434;2022-07-01T06:00:08;19.13;;;15.80;;
43337;SDS011;28933;52.492;13.434;2022-07-01T06:02:34;19.50;;;16.35;;
43337;SDS011;28933;52.492;13.434;2022-07-01T06:05:00;18.05;;;16.15;;
43337;SDS011;28933;52.492;13.434;2022-07-01T06:07:27;17.75;;;15.85;;
43337;SDS011;28933;52.492;13.434;2022-07-01T06:09:53;16.52;;;14.43;;
43337;SDS011;28933;52.492;13.434;2022-07-01T06:12:18;21.48;;;15.75;;
43337;SDS011;28933;52.492;13.434;2022-07-01T06:14:44;17.27;;;15.55;;
43337;SDS011;28933;52.492;13.434;2022-07-01T06:17:09;17.27;;;15.48;;
43337;SDS011;28933;52.492;13.434;2022-07-01T06:19:35;19.42;;;16.48;;
43337;SDS011;28933;52.492;13.434;2022-07-01T06:22:03;20.65;;;15.90;;
43337;SDS011;28933;52.492;13.434;2022-07-01T06:24:29;17.80;;;14.75;;
43337;SDS011;28933;52.492;13.434;2022-07-01T06:26:54;18.00;;;16.13;;
43337;SDS011;28933;52.492;13.434;2022-07-01T06:29:20;17.17;;;15.32;;
43337;SDS011;28933;52.492;13.434;2022-07-01T06:31:46;16.73;;;14.95;;
43337;SDS011;28933;52.492;13.434;2022-07-01T06:34:11;16.73;;;15.07;;
43337;SDS011;28933;52.492;13.434;2022-07-01T06:36:37;17.45;;;15.55;;
43337;SDS011;28933;52.492;13.434;2022-07-01T06:39:02;18.92;;;16.92;;
43337;SDS011;28933;52.492;13.434;2022-07-01T06:41:28;17.90;;;16.08;;
43337;SDS011;28933;52.492;13.434;2022-07-01T06:43:54;18.95;;;16.25;;
43337;SDS011;28933;52.492;13.434;2022-07-01T06:46:20;18.85;;;16.95;;
43337;SDS011;28933;52.492;13.434;2022-07-01T06:48:47;17.75;;;15.98;;
43337;SDS011;28933;52.492;13.434;2022-07-01T06:51:12;19.05;;;16.30;;
43337;SDS011;28933;52.492;13.434;2022-07-01T06:53:38;19.30;;;15.82;;
43337;SDS011;28933;52.492;13.434;2022-07-01T06:56:04;17.67;;;15.88;;
43337;SDS011;28933;52.492;13.434;2022-07-01T06:58:30;20.70;;;17.50;;
43337;SDS011;28933;52.492;13.434;2022-07-01T07:00:56;17.70;;;15.25;;
43337;SDS011;28933;52.492;13.434;2022-07-01T07:03:22;19.05;;;15.98;;
43337;SDS011;28933;52.492;13.434;2022-07-01T07:05:47;17.92;;;15.55;;
43337;SDS011;28933;52.492;13.434;2022-07-01T07:08:13;19.65;;;17.65;;
43337;SDS011;28933;52.492;13.434;2022-07-01T07:10:38;17.60;;;15.75;;
43337;SDS011;28933;52.492;13.434;2022-07-01T07:13:04;18.17;;;16.27;;
43337;SDS011;28933;52.492;13.434;2022-07-01T07:15:30;18.02;;;15.52;;
43337;SDS011;28933;52.492;13.434;2022-07-01T07:17:55;18.48;;;16.45;;
43337;SDS011;28933;52.492;13.434;2022-07-01T07:20:26;17.60;;;15.52;;
43337;SDS011;28933;52.492;13.434;2022-07-01T07:22:52;18.58;;;16.58;;
43337;SDS011;28933;52.492;13.434;2022-07-01T07:25:18;18.90;;;16.05;;
43337;SDS011;28933;52.492;13.434;2022-07-01T07:27:43;17.20;;;15.43;;
43337;SDS011;28933;52.492;13.434;2022-07-01T07:30:11;16.70;;;14.95;;
43337;SDS011;28933;52.492;13.434;2022-07-01T07:32:39;17.52;;;15.60;;
43337;SDS011;28933;52.492;13.434;2022-07-01T07:35:05;17.73;;;15.93;;
43337;SDS011;28933;52.492;13.434;2022-07-01T07:37:32;18.70;;;15.85;;
43337;SDS011;28933;52.492;13.434;2022-07-01T07:40:01;18.92;;;15.15;;
43337;SDS011;28933;52.492;13.434;2022-07-01T07:42:28;14.80;;;13.35;;
43337;SDS011;28933;52.492;13.434;2022-07-01T07:44:54;14.63;;;13.13;;
43337;SDS011;28933;52.492;13.434;2022-07-01T07:47:20;14.95;;;13.40;;
43337;SDS011;28933;52.492;13.434;2022-07-01T07:49:46;15.82;;;13.43;;
43337;SDS011;28933;52.492;13.434;2022-07-01T07:52:12;14.48;;;12.90;;
43337;SDS011;28933;52.492;13.434;2022-07-01T07:54:37;12.50;;;11.30;;
43337;SDS011;28933;52.492;13.434;2022-07-01T07:57:04;13.10;;;11.75;;
43337;SDS011;28933;52.492;13.434;2022-07-01T07:59:30;12.82;;;10.63;;
43337;SDS011;28933;52.492;13.434;2022-07-01T08:01:56;14.13;;;10.98;;
43337;SDS011;28933;52.492;13.434;2022-07-01T08:04:21;12.70;;;10.93;;
43337;SDS011;28933;52.492;13.434;2022-07-01T08:06:47;11.05;;;9.95;;
43337;SDS011;28933;52.492;13.434;2022-07-01T08:09:13;12.15;;;10.75;;
43337;SDS011;28933;52.492;13.434;2022-07-01T08:11:38;11.15;;;9.63;;
43337;SDS011;28933;52.492;13.434;2022-07-01T08:14:04;11.10;;;9.75;;
43337;SDS011;28933;52.492;13.434;2022-07-01T08:16:32;11.13;;;9.70;;
43337;SDS011;28933;52.492;13.434;2022-07-01T08:18:58;12.10;;;10.93;;
43337;SDS011;28933;52.492;13.434;2022-07-01T08:21:24;10.90;;;9.90;;
43337;SDS011;28933;52.492;13.434;2022-07-01T08:23:49;10.55;;;9.55;;
43337;SDS011;28933;52.492;13.434;2022-07-01T08:26:15;12.60;;;9.80;;
43337;SDS011;28933;52.492;13.434;2022-07-01T08:28:42;13.10;;;9.85;;
43337;SDS011;28933;52.492;13.434;2022-07-01T08:31:08;13.05;;;9.38;;
43337;SDS011;28933;52.492;13.434;2022-07-01T08:33:34;17.83;;;10.73;;
43337;SDS011;28933;52.492;13.434;2022-07-01T08:35:59;10.93;;;9.77;;
43337;SDS011;28933;52.492;13.434;2022-07-01T08:38:25;13.15;;;9.65;;
43337;SDS011;28933;52.492;13.434;2022-07-01T08:40:50;10.52;;;9.52;;
43337;SDS011;28933;52.492;13.434;2022-07-01T08:43:16;10.95;;;9.85;;
43337;SDS011;28933;52.492;13.434;2022-07-01T08:45:41;12.82;;;9.93;;
43337;SDS011;28933;52.492;13.434;2022-07-01T08:48:07;10.90;;;9.80;;
43337;SDS011;28933;52.492;13.434;2022-07-01T08:50:34;12.52;;;9.95;;
43337;SDS011;28933;52.492;13.434;2022-07-01T08:53:04;11.38;;;10.27;;
43337;SDS011;28933;52.492;13.434;2022-07-01T08:55:31;11.13;;;10.07;;
43337;SDS011;28933;52.492;13.434;2022-07-01T08:57:57;10.77;;;9.50;;
43337;SDS011;28933;52.492;13.434;2022-07-01T09:00:32;10.98;;;9.38;;
43337;SDS011;28933;52.492;13.434;2022-07-01T09:02:59;12.00;;;10.70;;
43337;SDS011;28933;52.492;13.434;2022-07-01T09:05:27;11.02;;;10.02;;
43337;SDS011;28933;52.492;13.434;2022-07-01T09:07:56;10.73;;;9.45;;
43337;SDS011;28933;52.492;13.434;2022-07-01T09:10:26;11.77;;;10.30;;
43337;SDS011;28933;52.492;13.434;2022-07-01T09:12:54;12.90;;;10.40;;
43337;SDS011;28933;52.492;13.434;2022-07-01T09:17:45;11.23;;;9.93;;
43337;SDS011;28933;52.492;13.434;2022-07-01T09:20:27;13.27;;;10.57;;
43337;SDS011;28933;52.492;13.434;2022-07-01T09:23:01;10.57;;;9.52;;
43337;SDS011;28933;52.492;13.434;2022-07-01T09:25:36;11.77;;;10.02;;
43337;SDS011;28933;52.492;13.434;2022-07-01T09:30:36;12.52;;;6.25;;
43337;SDS011;28933;52.492;13.434;2022-07-01T09:33:06;7.22;;;4.72;;
43337;SDS011;28933;52.492;13.434;2022-07-01T09:35:37;5.70;;;4.00;;
43337;SDS011;28933;52.492;13.434;2022-07-01T09:38:04;7.30;;;4.13;;
43337;SDS011;28933;52.492;13.434;2022-07-01T09:43:19;4.68;;;3.30;;
43337;SDS011;28933;52.492;13.434;2022-07-01T09:45:54;3.22;;;2.55;;
43337;SDS011;28933;52.492;13.434;2022-07-01T09:48:24;3.67;;;2.55;;
43337;SDS011;28933;52.492;13.434;2022-07-01T09:50:51;4.00;;;2.03;;
43337;SDS011;28933;52.492;13.434;2022-07-01T09:53:17;5.88;;;2.00;;
43337;SDS011;28933;52.492;13.434;2022-07-01T09:55:43;6.10;;;2.38;;
43337;SDS011;28933;52.492;13.434;2022-07-01T09:58:09;3.38;;;2.15;;
43337;SDS011;28933;52.492;13.434;2022-07-01T10:00:36;4.40;;;2.42;;
43337;SDS011;28933;52.492;13.434;2022-07-01T10:03:05;4.45;;;2.10;;
43337;SDS011;28933;52.492;13.434;2022-07-01T10:05:33;2.92;;;1.83;;
43337;SDS011;28933;52.492;13.434;2022-07-01T10:14:09;2.53;;;1.70;;
43337;SDS011;28933;52.492;13.434;2022-07-01T10:16:38;2.53;;;1.83;;
43337;SDS011;28933;52.492;13.434;2022-07-01T10:21:49;2.45;;;1.80;;
43337;SDS011;28933;52.492;13.434;2022-07-01T10:24:19;2.78;;;1.75;;
43337;SDS011;28933;52.492;13.434;2022-07-01T10:26:45;3.53;;;1.67;;
43337;SDS011;28933;52.492;13.434;2022-07-01T10:29:27;2.40;;;1.50;;
43337;SDS011;28933;52.492;13.434;2022-07-01T10:31:53;5.20;;;1.60;;
43337;SDS011;28933;52.492;13.434;2022-07-01T10:34:24;2.30;;;1.50;;
43337;SDS011;28933;52.492;13.434;2022-07-01T10:37:02;3.33;;;1.58;;
43337;SDS011;28933;52.492;13.434;2022-07-01T10:39:29;2.03;;;1.55;;
43337;SDS011;28933;52.492;13.434;2022-07-01T10:41:56;3.63;;;2.08;;
43337;SDS011;28933;52.492;13.434;2022-07-01T10:44:24;2.67;;;1.67;;
43337;SDS011;28933;52.492;13.434;2022-07-01T10:46:52;7.07;;;1.63;;
43337;SDS011;28933;52.492;13.434;2022-07-01T10:59:47;1.85;;;1.15;;
43337;SDS011;28933;52.492;13.434;2022-07-01T11:02:24;2.40;;;1.40;;
43337;SDS011;28933;52.492;13.434;2022-07-01T11:04:53;2.45;;;1.20;;
43337;SDS011;28933;52.492;13.434;2022-07-01T11:07:26;1.70;;;1.10;;
43337;SDS011;28933;52.492;13.434;2022-07-01T11:09:54;3.05;;;1.30;;
43337;SDS011;28933;52.492;13.434;2022-07-01T11:12:21;1.65;;;1.23;;
43337;SDS011;28933;52.492;13.434;2022-07-01T11:14:50;1.92;;;1.33;;
43337;SDS011;28933;52.492;13.434;2022-07-01T11:17:16;1.08;;;0.90;;
43337;SDS011;28933;52.492;13.434;2022-07-01T11:19:50;1.55;;;0.73;;
43337;SDS011;28933;52.492;13.434;2022-07-01T11:24:59;1.23;;;0.85;;
43337;SDS011;28933;52.492;13.434;2022-07-01T11:27:26;4.00;;;1.10;;
43337;SDS011;28933;52.492;13.434;2022-07-01T11:29:52;1.00;;;0.85;;
43337;SDS011;28933;52.492;13.434;2022-07-01T11:34:52;2.38;;;1.30;;
43337;SDS011;28933;52.492;13.434;2022-07-01T11:37:18;1.75;;;1.08;;
43337;SDS011;28933;52.492;13.434;2022-07-01T11:40:10;2.30;;;1.40;;
43337;SDS011;28933;52.492;13.434;2022-07-01T11:42:37;3.72;;;1.55;;
43337;SDS011;28933;52.492;13.434;2022-07-01T11:45:03;2.58;;;1.23;;
43337;SDS011;28933;52.492;13.434;2022-07-01T11:47:29;1.42;;;1.30;;
43337;SDS011;28933;52.492;13.434;2022-07-01T11:49:55;1.90;;;1.40;;
43337;SDS011;28933;52.492;13.434;2022-07-01T11:52:22;3.50;;;1.20;;
43337;SDS011;28933;52.492;13.434;2022-07-01T11:54:49;2.55;;;1.30;;
43337;SDS011;28933;52.492;13.434;2022-07-01T11:59:49;2.30;;;1.50;;
43337;SDS011;28933;52.492;13.434;2022-07-01T12:02:17;2.90;;;1.83;;
43337;SDS011;28933;52.492;13.434;2022-07-01T12:04:44;2.80;;;1.50;;
43337;SDS011;28933;52.492;13.434;2022-07-01T12:07:11;10.38;;;1.50;;
43337;SDS011;28933;52.492;13.434;2022-07-01T12:09:38;2.88;;;1.88;;
43337;SDS011;28933;52.492;13.434;2022-07-01T12:12:05;1.95;;;1.50;;
43337;SDS011;28933;52.492;13.434;2022-07-01T12:14:31;3.55;;;1.80;;
43337;SDS011;28933;52.492;13.434;2022-07-01T12:17:01;2.20;;;1.70;;
43337;SDS011;28933;52.492;13.434;2022-07-01T12:22:07;3.55;;;2.30;;
43337;SDS011;28933;52.492;13.434;2022-07-01T12:24:34;3.00;;;2.30;;
43337;SDS011;28933;52.492;13.434;2022-07-01T12:29:28;3.60;;;2.53;;
43337;SDS011;28933;52.492;13.434;2022-07-01T12:32:14;3.85;;;2.78;;
43337;SDS011;28933;52.492;13.434;2022-07-01T12:34:42;3.67;;;2.22;;
43337;SDS011;28933;52.492;13.434;2022-07-01T12:37:12;4.10;;;2.88;;
43337;SDS011;28933;52.492;13.434;2022-07-01T12:40:22;3.78;;;2.97;;
43337;SDS011;28933;52.492;13.434;2022-07-01T12:42:29;4.72;;;3.08;;
43337;SDS011;28933;52.492;13.434;2022-07-01T12:45:02;5.22;;;2.53;;
43337;SDS011;28933;52.492;13.434;2022-07-01T12:47:30;3.33;;;2.78;;
43337;SDS011;28933;52.492;13.434;2022-07-01T12:52:39;4.05;;;3.13;;
43337;SDS011;28933;52.492;13.434;2022-07-01T12:55:17;4.05;;;3.08;;
43337;SDS011;28933;52.492;13.434;2022-07-01T12:57:46;5.03;;;3.22;;
43337;SDS011;28933;52.492;13.434;2022-07-01T13:00:17;4.43;;;3.55;;
43337;SDS011;28933;52.492;13.434;2022-07-01T13:02:43;4.43;;;3.90;;
43337;SDS011;28933;52.492;13.434;2022-07-01T13:05:09;5.25;;;3.25;;
43337;SDS011;28933;52.492;13.434;2022-07-01T13:07:35;5.18;;;4.03;;
43337;SDS011;28933;52.492;13.434;2022-07-01T13:10:01;7.05;;;3.63;;
43337;SDS011;28933;52.492;13.434;2022-07-01T13:12:27;4.57;;;4.03;;
43337;SDS011;28933;52.492;13.434;2022-07-01T13:14:53;4.63;;;3.40;;
43337;SDS011;28933;52.492;13.434;2022-07-01T13:17:23;5.45;;;3.60;;
43337;SDS011;28933;52.492;13.434;2022-07-01T13:19:49;4.35;;;3.83;;
43337;SDS011;28933;52.492;13.434;2022-07-01T13:22:18;4.25;;;3.80;;
43337;SDS011;28933;52.492;13.434;2022-07-01T13:24:44;5.05;;;3.15;;
43337;SDS011;28933;52.492;13.434;2022-07-01T13:27:10;5.70;;;3.72;;
43337;SDS011;28933;52.492;13.434;2022-07-01T13:29:36;5.45;;;3.67;;
43337;SDS011;28933;52.492;13.434;2022-07-01T13:32:04;5.32;;;3.28;;
43337;SDS011;28933;52.492;13.434;2022-07-01T13:34:32;4.40;;;3.80;;
43337;SDS011;28933;52.492;13.434;2022-07-01T13:36:58;4.97;;;3.17;;
43337;SDS011;28933;52.492;13.434;2022-07-01T13:39:24;4.43;;;3.35;;
43337;SDS011;28933;52.492;13.434;2022-07-01T13:41:50;5.25;;;3.80;;
43337;SDS011;28933;52.492;13.434;2022-07-01T13:44:15;4.65;;;3.13;;
43337;SDS011;28933;52.492;13.434;2022-07-01T13:46:41;4.72;;;3.67;;
43337;SDS011;28933;52.492;13.434;2022-07-01T13:49:06;5.75;;;3.50;;
43337;SDS011;28933;52.492;13.434;2022-07-01T13:51:32;5.57;;;3.55;;
43337;SDS011;28933;52.492;13.434;2022-07-01T13:53:58;4.72;;;3.75;;
43337;SDS011;28933;52.492;13.434;2022-07-01T13:56:25;4.00;;;3.10;;
43337;SDS011;28933;52.492;13.434;2022-07-01T13:58:51;6.70;;;4.07;;
43337;SDS011;28933;52.492;13.434;2022-07-01T14:01:17;4.40;;;3.22;;
43337;SDS011;28933;52.492;13.434;2022-07-01T14:03:43;3.10;;;2.50;;
43337;SDS011;28933;52.492;13.434;2022-07-01T14:06:09;3.90;;;2.85;;
43337;SDS011;28933;52.492;13.434;2022-07-01T14:08:35;4.43;;;2.85;;
43337;SDS011;28933;52.492;13.434;2022-07-01T14:11:00;4.20;;;3.08;;
43337;SDS011;28933;52.492;13.434;2022-07-01T14:13:26;4.78;;;3.53;;
43337;SDS011;28933;52.492;13.434;2022-07-01T14:15:51;5.80;;;3.22;;
43337;SDS011;28933;52.492;13.434;2022-07-01T14:18:18;4.70;;;2.83;;
43337;SDS011;28933;52.492;13.434;2022-07-01T14:20:44;3.60;;;2.83;;
43337;SDS011;28933;52.492;13.434;2022-07-01T14:23:10;3.20;;;2.70;;
43337;SDS011;28933;52.492;13.434;2022-07-01T14:25:35;4.03;;;2.97;;
43337;SDS011;28933;52.492;13.434;2022-07-01T14:28:02;4.43;;;3.15;;
43337;SDS011;28933;52.492;13.434;2022-07-01T14:30:28;3.05;;;2.53;;
43337;SDS011;28933;52.492;13.434;2022-07-01T14:32:53;3.90;;;2.75;;
43337;SDS011;28933;52.492;13.434;2022-07-01T14:35:19;2.53;;;2.13;;
43337;SDS011;28933;52.492;13.434;2022-07-01T14:37:46;3.65;;;2.35;;
43337;SDS011;28933;52.492;13.434;2022-07-01T14:40:12;3.13;;;2.60;;
43337;SDS011;28933;52.492;13.434;2022-07-01T14:42:38;3.78;;;2.10;;
43337;SDS011;28933;52.492;13.434;2022-07-01T14:45:04;2.80;;;2.20;;
43337;SDS011;28933;52.492;13.434;2022-07-01T14:47:31;3.40;;;2.50;;
43337;SDS011;28933;52.492;13.434;2022-07-01T14:49:57;3.95;;;3.05;;
43337;SDS011;28933;52.492;13.434;2022-07-01T14:52:23;4.55;;;3.38;;
43337;SDS011;28933;52.492;13.434;2022-07-01T14:54:49;3.63;;;3.10;;
43337;SDS011;28933;52.492;13.434;2022-07-01T14:57:15;4.60;;;3.20;;
43337;SDS011;28933;52.492;13.434;2022-07-01T14:59:41;3.60;;;2.92;;